Skip Navigation LinksHome page > Weather > Current weather Skip Navigation Links

Current Weather

Indira Gandhi Intl Apt, New Delhi, India

For information only: do not use for flight planning or navigation.
Latest weather
Observation time Wednesday, July 23, 2014 6:30 AM IST
Local time Wednesday, July 23, 2014 7:08 AM IST
Flight conditions Instrument Meteorological Conditions
Winds
Wind direction East-Southeast (110°)
Wind speed 7 mph
Visibility 2.2 mi.
Present weather mist
Sky condition
Ceiling unlimited
Cloud layer scattered clouds 3,000 ft.
Cloud layer scattered clouds 10,000 ft.
Temperature 84°F
Dewpoint 79°F
Altimeter 29.50 in.Hg
Derived measurements
Relative humidity 84%
Heat index 96°F
Density altitude 2537 ft.
Remarks
No significant changes expected in the next two hours.
METAR VIDP 230100Z 11006KT 3500 BR SCT030 SCT100 29/26 Q0999 NOSIG

Settings

Location code

InnerDrive.Weather 4.0.5294.0 Release CLR 4.0.30319.34014
Copyright ©2014 Inner Drive Technology. All rights reserved. Portions Copyright ©1986-2014 David Braverman.

Find weather

Site navigation


Skip Navigation Links

Place info

Page info

PayPal - The safer, easier way to pay online!

Return home.

Copyright ©2014 Inner Drive Technology. Purveyors of fine, hand-crafted computer software. Page printed 2014-07-23T01:38:57 UTC.